Lagoa — CSMR — position and weather

sailwx.info

Track history (hours):
 
Tides and Currents Weather Stations Pressure Air Temp Water Temp Dewpoint Dewpoint Depression Visibility Wind Speed Wind Dir Waves Ship Positions

Lagoa

Last reported at 2017-Nov-17 23:51 UTC. Time now 2017-Nov-23 05:53 UTC.
Position N 28°25' W 015°59'.

Length 100 m; draft 6.4 m.

Type: Ship. MMSI: 255802850.

Date/timePositionNaut miles runAvg speedWind from/ knotsBaromVisibWave heightAir tempDewpointWater temp
2017-Nov-17 23:51N 28°25' W 015°59'514.1
2017-Nov-17 23:30N 28°28' W 015°55'714.2
2017-Nov-17 23:01N 28°33' W 015°49'714.3
2017-Nov-17 22:30N 28°39' W 015°44'714.5
2017-Nov-17 22:01N 28°45' W 015°40'814.4
2017-Nov-17 21:28N 28°52' W 015°36'714.2
2017-Nov-17 21:00N 28°58' W 015°33'814.1
2017-Nov-17 20:27N 29°05' W 015°29'614.0
2017-Nov-17 19:59N 29°11' W 015°25'814.1
2017-Nov-17 19:25N 29°18' W 015°21'914.4
2017-Nov-17 18:49N 29°25' W 015°16'414.3
2017-Nov-17 18:30N 29°29' W 015°14'714.4
2017-Nov-17 18:00N 29°36' W 015°10'814.4
2017-Nov-17 17:28N 29°43' W 015°06'814.2
2017-Nov-17 16:53N 29°50' W 015°02'513.9
2017-Nov-17 16:30N 29°55' W 014°59'49614.2
2017-Nov-16 05:28N 37°09' W 010°13'714.2
2017-Nov-16 05:01N 37°15' W 010°09'714.0
2017-Nov-16 04:29N 37°22' W 010°06'713.9
2017-Nov-16 03:58N 37°29' W 010°02'613.6
2017-Nov-16 03:30N 37°34' W 009°59'713.7
2017-Nov-16 03:00N 37°41' W 009°55'713.9
2017-Nov-16 02:31N 37°47' W 009°51'713.8
2017-Nov-16 02:01N 37°53' W 009°48'714.2
2017-Nov-16 01:31N 37°60' W 009°44'714.3
2017-Nov-16 01:01N 38°06' W 009°40'713.8
2017-Nov-16 00:31N 38°13' W 009°37'713.6
2017-Nov-16 00:01N 38°19' W 009°33'713.8
2017-Nov-15 23:30N 38°25' W 009°30'713.5
2017-Nov-15 23:00N 38°31' W 009°26'713.6
2017-Nov-15 22:30N 38°37' W 009°22'612.1
2017-Nov-15 22:00N 38°41' W 009°17'5 9.4
2017-Nov-15 21:29N 38°42' W 009°10'3 6.3
2017-Nov-15 21:00N 38°43' W 009°07'0 0.0
2017-Nov-15 20:30N 38°43' W 009°07'1 1.3
2017-Nov-15 20:00N 38°44' W 009°06'1 1.4
2017-Nov-15 19:29N 38°44' W 009°06'0 0.0
2017-Nov-15 18:59N 38°44' W 009°06'0 0.0
2017-Nov-15 18:29N 38°44' W 009°06'0 0.0
2017-Nov-15 17:47N 38°44' W 009°06'0 0.0
2017-Nov-15 17:29N 38°44' W 009°06'0 0.0
2017-Nov-15 16:59N 38°44' W 009°06'0 0.0
2017-Nov-15 16:29N 38°44' W 009°06'0 0.0
2017-Nov-15 15:59N 38°44' W 009°06'0 0.0
2017-Nov-15 15:23N 38°44' W 009°06'0 0.0
2017-Nov-15 14:02N 38°44' W 009°06'0 0.0
2017-Nov-15 13:53N 38°44' W 009°06'0 0.0
2017-Nov-15 13:23N 38°44' W 009°06'0 0.0
2017-Nov-15 12:53N 38°44' W 009°06'0 0.0
2017-Nov-15 12:29N 38°44' W 009°06'0 0.0
2017-Nov-15 11:59N 38°44' W 009°06'0 0.0
2017-Nov-15 11:29N 38°44' W 009°06'0 0.0
2017-Nov-15 10:59N 38°44' W 009°06'0 0.0
2017-Nov-15 10:28N 38°44' W 009°06'0 0.0
2017-Nov-15 09:58N 38°44' W 009°06'0 0.0
2017-Nov-15 09:28N 38°44' W 009°06'0 0.0
2017-Nov-15 08:58N 38°44' W 009°06'0 0.0
2017-Nov-15 08:28N 38°44' W 009°06'0 0.0
2017-Nov-15 08:01N 38°44' W 009°06'2 4.9
2017-Nov-15 07:30N 38°42' W 009°08'610.9
2017-Nov-15 07:00N 38°41' W 009°15'612.3
2017-Nov-15 06:30N 38°38' W 009°21'612.8
2017-Nov-15 06:01N 38°38' W 009°29'714.3
2017-Nov-15 05:31N 38°39' W 009°38'612.7
2017-Nov-15 05:01N 38°44' W 009°43'815.1
2017-Nov-15 04:31N 38°51' W 009°44'714.8
2017-Nov-15 04:00N 38°59' W 009°44'714.7
2017-Nov-15 03:30N 39°06' W 009°44'714.6
2017-Nov-15 03:00N 39°13' W 009°44'714.4
2017-Nov-15 02:31N 39°21' W 009°44'714.6
2017-Nov-15 02:00N 39°28' W 009°44'814.7
2017-Nov-15 01:29N 39°35' W 009°41'1714.8
2017-Nov-15 00:20N 39°50' W 009°32'514.6
2017-Nov-14 23:59N 39°55' W 009°29'6314.7
2017-Nov-14 19:41N 40°53' W 008°54'315.1
2017-Nov-14 19:30N 40°55' W 008°53'815.1
2017-Nov-14 19:00N 41°02' W 008°48'714.9
2017-Nov-14 18:31N 41°09' W 008°44'3 6.0
2017-Nov-14 18:00N 41°11' W 008°42'0 0.0
2017-Nov-14 17:28N 41°11' W 008°42'0 0.0
2017-Nov-14 16:58N 41°11' W 008°42'0 0.0
2017-Nov-14 16:28N 41°11' W 008°42'0 0.0
2017-Nov-14 15:58N 41°11' W 008°42'0 0.0
2017-Nov-14 15:28N 41°11' W 008°42'0 0.0
2017-Nov-14 14:58N 41°11' W 008°42'0 0.0
2017-Nov-14 14:28N 41°11' W 008°42'0 0.0
2017-Nov-14 13:58N 41°11' W 008°42'0 0.0
2017-Nov-14 13:28N 41°11' W 008°42'0 0.0
2017-Nov-14 12:58N 41°11' W 008°42'0 0.0
2017-Nov-14 12:28N 41°11' W 008°42'0 0.0
2017-Nov-14 11:58N 41°11' W 008°42'0 0.0
2017-Nov-14 11:28N 41°11' W 008°42'0 0.0
2017-Nov-14 10:58N 41°11' W 008°42'0 0.0
2017-Nov-14 10:28N 41°11' W 008°42'0 0.0
2017-Nov-14 09:58N 41°11' W 008°42'0 0.0
2017-Nov-14 09:28N 41°11' W 008°42'0 0.0
2017-Nov-14 08:58N 41°11' W 008°42'0 0.0
2017-Nov-14 08:28N 41°11' W 008°42'0 0.0
2017-Nov-14 07:58N 41°11' W 008°42'0 0.0
2017-Nov-14 07:25N 41°11' W 008°42'0 0.0
2017-Nov-14 06:58N 41°11' W 008°42'0 0.0
2017-Nov-14 06:28N 41°11' W 008°42'0 0.0
2017-Nov-14 05:58N 41°11' W 008°42'0 0.0
2017-Nov-14 05:28N 41°11' W 008°42'0 0.0
2017-Nov-14 04:58N 41°11' W 008°42'0 0.0
2017-Nov-14 04:28N 41°11' W 008°42'0 0.0
2017-Nov-14 03:58N 41°11' W 008°42'0 0.0
2017-Nov-14 03:28N 41°11' W 008°42'0 0.0
2017-Nov-14 02:58N 41°11' W 008°42'0 0.0
2017-Nov-14 02:28N 41°11' W 008°42'0 0.0
2017-Nov-14 01:58N 41°11' W 008°42'0 0.0
2017-Nov-14 01:28N 41°11' W 008°42'0 0.0
2017-Nov-14 00:58N 41°11' W 008°42'0 0.0
2017-Nov-14 00:28N 41°11' W 008°42'0 0.0
2017-Nov-13 23:58N 41°11' W 008°42'0 0.0
2017-Nov-13 23:28N 41°11' W 008°42'0 0.0
2017-Nov-13 22:58N 41°11' W 008°42'0 0.0
2017-Nov-13 22:28N 41°11' W 008°42'0 0.0
2017-Nov-13 21:55N 41°11' W 008°42'134 6.7
2017-Nov-13 02:00N 39°10' W 009°54'612.3
2017-Nov-13 01:30N 39°05' W 010°00'612.0
2017-Nov-13 01:00N 39°01' W 010°05'611.7
2017-Nov-13 00:30N 38°57' W 010°10'611.7
2017-Nov-13 00:00N 38°52' W 010°15'1411.7
2017-Nov-12 22:48N 38°39' W 010°23'1811.9
2017-Nov-12 21:17N 38°23' W 010°32'311.7
2017-Nov-12 21:00N 38°20' W 010°34'611.9
2017-Nov-12 20:30N 38°15' W 010°37'611.8
2017-Nov-12 19:59N 38°09' W 010°40'611.4
2017-Nov-12 19:28N 38°04' W 010°43'811.2
2017-Nov-12 18:48N 37°57' W 010°47'311.2
2017-Nov-12 18:29N 37°54' W 010°49'1911.4
2017-Nov-12 16:48N 37°36' W 010°58'711.7
2017-Nov-12 16:13N 37°30' W 011°02'3111.5
2017-Nov-12 13:32N 37°05' W 011°25'211.6
2017-Nov-12 13:19N 37°03' W 011°27'9111.6
2017-Nov-12 05:30N 35°47' W 012°29'2112.0
2017-Nov-12 03:46N 35°29' W 012°43'31211.0
2017-Nov-10 23:23N 30°42' W 015°08'410.2
2017-Nov-10 22:59N 30°38' W 015°09'2810.0
2017-Nov-10 20:12N 30°11' W 015°17'2 9.9
2017-Nov-10 20:00N 30°09' W 015°18'510.1
2017-Nov-10 19:30N 30°05' W 015°19'510.0
2017-Nov-10 19:00N 29°60' W 015°20'5 9.9
2017-Nov-10 18:29N 29°55' W 015°22'9 9.8
2017-Nov-10 17:36N 29°46' W 015°25'1 9.5
2017-Nov-10 17:29N 29°45' W 015°26'5 9.8
2017-Nov-10 16:59N 29°41' W 015°27'510.4
2017-Nov-10 16:27N 29°35' W 015°29'510.7
2017-Nov-10 15:59N 29°30' W 015°30'3310.5
2017-Nov-10 12:50N 28°58' W 015°38'410.7
2017-Nov-10 12:30N 28°55' W 015°38'510.6
2017-Nov-10 12:00N 28°49' W 015°39'510.7
2017-Nov-10 11:30N 28°44' W 015°39'510.3
2017-Nov-10 11:00N 28°39' W 015°40'510.1
2017-Nov-10 10:30N 28°34' W 015°41'510.8
2017-Nov-10 10:00N 28°30' W 015°45'510.8
2017-Nov-10 09:30N 28°26' W 015°49'511.0
2017-Nov-10 09:00N 28°22' W 015°54'510.8
2017-Nov-10 08:30N 28°17' W 015°57'3211.7
2017-Nov-10 05:44N 27°50' W 016°17'312.5
2017-Nov-10 05:30N 27°47' W 016°17'  
Track history (hours):
 
Tides and Currents Weather Stations Pressure Air Temp Water Temp Dewpoint Dewpoint Depression Visibility Wind Speed Wind Dir Waves Ship Positions

Lagoa

Last reported at 2017-Nov-17 23:51 UTC. Time now 2017-Nov-23 05:53 UTC.
Position N 28°25' W 015°59'.

Length 100 m; draft 6.4 m.

Type: Ship. MMSI: 255802850.

Date/timePositionNaut miles runAvg speedWind from/ knotsBaromVisibWave heightAir tempDewpointWater temp
2017-Nov-17 23:51N 28°25' W 015°59'514.1
2017-Nov-17 23:30N 28°28' W 015°55'714.2
2017-Nov-17 23:01N 28°33' W 015°49'714.3
2017-Nov-17 22:30N 28°39' W 015°44'714.5
2017-Nov-17 22:01N 28°45' W 015°40'814.4
2017-Nov-17 21:28N 28°52' W 015°36'714.2
2017-Nov-17 21:00N 28°58' W 015°33'814.1
2017-Nov-17 20:27N 29°05' W 015°29'614.0
2017-Nov-17 19:59N 29°11' W 015°25'814.1
2017-Nov-17 19:25N 29°18' W 015°21'914.4
2017-Nov-17 18:49N 29°25' W 015°16'414.3
2017-Nov-17 18:30N 29°29' W 015°14'714.4
2017-Nov-17 18:00N 29°36' W 015°10'814.4
2017-Nov-17 17:28N 29°43' W 015°06'814.2
2017-Nov-17 16:53N 29°50' W 015°02'513.9
2017-Nov-17 16:30N 29°55' W 014°59'49614.2
2017-Nov-16 05:28N 37°09' W 010°13'714.2
2017-Nov-16 05:01N 37°15' W 010°09'714.0
2017-Nov-16 04:29N 37°22' W 010°06'713.9
2017-Nov-16 03:58N 37°29' W 010°02'613.6
2017-Nov-16 03:30N 37°34' W 009°59'713.7
2017-Nov-16 03:00N 37°41' W 009°55'713.9
2017-Nov-16 02:31N 37°47' W 009°51'713.8
2017-Nov-16 02:01N 37°53' W 009°48'714.2
2017-Nov-16 01:31N 37°60' W 009°44'714.3
2017-Nov-16 01:01N 38°06' W 009°40'713.8
2017-Nov-16 00:31N 38°13' W 009°37'713.6
2017-Nov-16 00:01N 38°19' W 009°33'713.8
2017-Nov-15 23:30N 38°25' W 009°30'713.5
2017-Nov-15 23:00N 38°31' W 009°26'713.6
2017-Nov-15 22:30N 38°37' W 009°22'612.1
2017-Nov-15 22:00N 38°41' W 009°17'5 9.4
2017-Nov-15 21:29N 38°42' W 009°10'3 6.3
2017-Nov-15 21:00N 38°43' W 009°07'0 0.0
2017-Nov-15 20:30N 38°43' W 009°07'1 1.3
2017-Nov-15 20:00N 38°44' W 009°06'1 1.4
2017-Nov-15 19:29N 38°44' W 009°06'0 0.0
2017-Nov-15 18:59N 38°44' W 009°06'0 0.0
2017-Nov-15 18:29N 38°44' W 009°06'0 0.0
2017-Nov-15 17:47N 38°44' W 009°06'0 0.0
2017-Nov-15 17:29N 38°44' W 009°06'0 0.0
2017-Nov-15 16:59N 38°44' W 009°06'0 0.0
2017-Nov-15 16:29N 38°44' W 009°06'0 0.0
2017-Nov-15 15:59N 38°44' W 009°06'0 0.0
2017-Nov-15 15:23N 38°44' W 009°06'0 0.0
2017-Nov-15 14:02N 38°44' W 009°06'0 0.0
2017-Nov-15 13:53N 38°44' W 009°06'0 0.0
2017-Nov-15 13:23N 38°44' W 009°06'0 0.0
2017-Nov-15 12:53N 38°44' W 009°06'0 0.0
2017-Nov-15 12:29N 38°44' W 009°06'0 0.0
2017-Nov-15 11:59N 38°44' W 009°06'0 0.0
2017-Nov-15 11:29N 38°44' W 009°06'0 0.0
2017-Nov-15 10:59N 38°44' W 009°06'0 0.0
2017-Nov-15 10:28N 38°44' W 009°06'0 0.0
2017-Nov-15 09:58N 38°44' W 009°06'0 0.0
2017-Nov-15 09:28N 38°44' W 009°06'0 0.0
2017-Nov-15 08:58N 38°44' W 009°06'0 0.0
2017-Nov-15 08:28N 38°44' W 009°06'0 0.0
2017-Nov-15 08:01N 38°44' W 009°06'2 4.9
2017-Nov-15 07:30N 38°42' W 009°08'610.9
2017-Nov-15 07:00N 38°41' W 009°15'612.3
2017-Nov-15 06:30N 38°38' W 009°21'612.8
2017-Nov-15 06:01N 38°38' W 009°29'714.3
2017-Nov-15 05:31N 38°39' W 009°38'612.7
2017-Nov-15 05:01N 38°44' W 009°43'815.1
2017-Nov-15 04:31N 38°51' W 009°44'714.8
2017-Nov-15 04:00N 38°59' W 009°44'714.7
2017-Nov-15 03:30N 39°06' W 009°44'714.6
2017-Nov-15 03:00N 39°13' W 009°44'714.4
2017-Nov-15 02:31N 39°21' W 009°44'714.6
2017-Nov-15 02:00N 39°28' W 009°44'814.7
2017-Nov-15 01:29N 39°35' W 009°41'1714.8
2017-Nov-15 00:20N 39°50' W 009°32'514.6
2017-Nov-14 23:59N 39°55' W 009°29'6314.7
2017-Nov-14 19:41N 40°53' W 008°54'315.1
2017-Nov-14 19:30N 40°55' W 008°53'815.1
2017-Nov-14 19:00N 41°02' W 008°48'714.9
2017-Nov-14 18:31N 41°09' W 008°44'3 6.0
2017-Nov-14 18:00N 41°11' W 008°42'0 0.0
2017-Nov-14 17:28N 41°11' W 008°42'0 0.0
2017-Nov-14 16:58N 41°11' W 008°42'0 0.0
2017-Nov-14 16:28N 41°11' W 008°42'0 0.0
2017-Nov-14 15:58N 41°11' W 008°42'0 0.0
2017-Nov-14 15:28N 41°11' W 008°42'0 0.0
2017-Nov-14 14:58N 41°11' W 008°42'0 0.0
2017-Nov-14 14:28N 41°11' W 008°42'0 0.0
2017-Nov-14 13:58N 41°11' W 008°42'0 0.0
2017-Nov-14 13:28N 41°11' W 008°42'0 0.0
2017-Nov-14 12:58N 41°11' W 008°42'0 0.0
2017-Nov-14 12:28N 41°11' W 008°42'0 0.0
2017-Nov-14 11:58N 41°11' W 008°42'0 0.0
2017-Nov-14 11:28N 41°11' W 008°42'0 0.0
2017-Nov-14 10:58N 41°11' W 008°42'0 0.0
2017-Nov-14 10:28N 41°11' W 008°42'0 0.0
2017-Nov-14 09:58N 41°11' W 008°42'0 0.0
2017-Nov-14 09:28N 41°11' W 008°42'0 0.0
2017-Nov-14 08:58N 41°11' W 008°42'0 0.0
2017-Nov-14 08:28N 41°11' W 008°42'0 0.0
2017-Nov-14 07:58N 41°11' W 008°42'0 0.0
2017-Nov-14 07:25N 41°11' W 008°42'0 0.0
2017-Nov-14 06:58N 41°11' W 008°42'0 0.0
2017-Nov-14 06:28N 41°11' W 008°42'0 0.0
2017-Nov-14 05:58N 41°11' W 008°42'0 0.0
2017-Nov-14 05:28N 41°11' W 008°42'0 0.0
2017-Nov-14 04:58N 41°11' W 008°42'0 0.0
2017-Nov-14 04:28N 41°11' W 008°42'0 0.0
2017-Nov-14 03:58N 41°11' W 008°42'0 0.0
2017-Nov-14 03:28N 41°11' W 008°42'0 0.0
2017-Nov-14 02:58N 41°11' W 008°42'0 0.0
2017-Nov-14 02:28N 41°11' W 008°42'0 0.0
2017-Nov-14 01:58N 41°11' W 008°42'0 0.0
2017-Nov-14 01:28N 41°11' W 008°42'0 0.0
2017-Nov-14 00:58N 41°11' W 008°42'0 0.0
2017-Nov-14 00:28N 41°11' W 008°42'0 0.0
2017-Nov-13 23:58N 41°11' W 008°42'0 0.0
2017-Nov-13 23:28N 41°11' W 008°42'0 0.0
2017-Nov-13 22:58N 41°11' W 008°42'0 0.0
2017-Nov-13 22:28N 41°11' W 008°42'0 0.0
2017-Nov-13 21:55N 41°11' W 008°42'134 6.7
2017-Nov-13 02:00N 39°10' W 009°54'612.3
2017-Nov-13 01:30N 39°05' W 010°00'612.0
2017-Nov-13 01:00N 39°01' W 010°05'611.7
2017-Nov-13 00:30N 38°57' W 010°10'611.7
2017-Nov-13 00:00N 38°52' W 010°15'1411.7
2017-Nov-12 22:48N 38°39' W 010°23'1811.9
2017-Nov-12 21:17N 38°23' W 010°32'311.7
2017-Nov-12 21:00N 38°20' W 010°34'611.9
2017-Nov-12 20:30N 38°15' W 010°37'611.8
2017-Nov-12 19:59N 38°09' W 010°40'611.4
2017-Nov-12 19:28N 38°04' W 010°43'811.2
2017-Nov-12 18:48N 37°57' W 010°47'311.2
2017-Nov-12 18:29N 37°54' W 010°49'1911.4
2017-Nov-12 16:48N 37°36' W 010°58'711.7
2017-Nov-12 16:13N 37°30' W 011°02'3111.5
2017-Nov-12 13:32N 37°05' W 011°25'211.6
2017-Nov-12 13:19N 37°03' W 011°27'9111.6
2017-Nov-12 05:30N 35°47' W 012°29'2112.0
2017-Nov-12 03:46N 35°29' W 012°43'31211.0
2017-Nov-10 23:23N 30°42' W 015°08'410.2
2017-Nov-10 22:59N 30°38' W 015°09'2810.0
2017-Nov-10 20:12N 30°11' W 015°17'2 9.9
2017-Nov-10 20:00N 30°09' W 015°18'510.1
2017-Nov-10 19:30N 30°05' W 015°19'510.0
2017-Nov-10 19:00N 29°60' W 015°20'5 9.9
2017-Nov-10 18:29N 29°55' W 015°22'9 9.8
2017-Nov-10 17:36N 29°46' W 015°25'1 9.5
2017-Nov-10 17:29N 29°45' W 015°26'5 9.8
2017-Nov-10 16:59N 29°41' W 015°27'510.4
2017-Nov-10 16:27N 29°35' W 015°29'510.7
2017-Nov-10 15:59N 29°30' W 015°30'3310.5
2017-Nov-10 12:50N 28°58' W 015°38'410.7
2017-Nov-10 12:30N 28°55' W 015°38'510.6
2017-Nov-10 12:00N 28°49' W 015°39'510.7
2017-Nov-10 11:30N 28°44' W 015°39'510.3
2017-Nov-10 11:00N 28°39' W 015°40'510.1
2017-Nov-10 10:30N 28°34' W 015°41'510.8
2017-Nov-10 10:00N 28°30' W 015°45'510.8
2017-Nov-10 09:30N 28°26' W 015°49'511.0
2017-Nov-10 09:00N 28°22' W 015°54'510.8
2017-Nov-10 08:30N 28°17' W 015°57'3211.7
2017-Nov-10 05:44N 27°50' W 016°17'312.5
2017-Nov-10 05:30N 27°47' W 016°17'  

Dump ship's entire track history